Time;durP1;ratioP1;P1;durP2;ratioP2;P2;SDS_P1;SDS_P2;PMS_P1;PMS_P2;Temp;Humidity;BMP_temperature;BMP_pressure;BME280_temperature;BME280_humidity;BME280_pressure;Samples;Min_cycle;Max_cycle;Signal;HPM_P1;HPM_P2
2023/09/15 00:00:45;;;;;;;13.57;10.43;;;;;;;22.71;69.16;94999.56;5052630;28;20945;-82
2023/09/15 00:03:12;;;;;;;17.53;11.67;;;;;;;22.66;70.05;94993.97;5052320;28;20453;-81
2023/09/15 00:05:39;;;;;;;16.27;10.40;;;;;;;22.70;70.14;94995.22;5052383;28;20589;-82
2023/09/15 00:08:07;;;;;;;12.73;10.40;;;;;;;22.69;70.00;95001.59;5052658;28;20440;-82
2023/09/15 00:10:39;;;;;;;12.53;11.17;;;;;;;22.67;69.93;95003.66;5052284;28;20493;-83
2023/09/15 00:13:06;;;;;;;15.93;10.67;;;;;;;22.62;69.94;95003.44;5052513;28;20794;-81
2023/09/15 00:15:33;;;;;;;13.30;11.07;;;;;;;22.61;70.25;95007.16;5059943;28;20455;-82
2023/09/15 00:18:00;;;;;;;13.17;11.37;;;;;;;22.60;69.79;95005.50;5061693;28;20923;-83
2023/09/15 00:20:26;;;;;;;18.03;11.07;;;;;;;22.59;69.80;95001.19;5055516;28;20530;-81
2023/09/15 00:22:55;;;;;;;12.50;11.00;;;;;;;22.53;69.69;95007.31;5052319;28;20453;-81
2023/09/15 00:25:25;;;;;;;11.73;10.53;;;;;;;22.47;69.97;95008.13;5052579;28;20535;-82
2023/09/15 00:27:56;;;;;;;13.50;12.10;;;;;;;22.49;70.12;95006.88;5054712;28;20534;-82
2023/09/15 00:30:24;;;;;;;11.77;10.20;;;;;;;22.49;70.02;95006.06;5055676;28;21015;-82
2023/09/15 00:32:52;;;;;;;13.67;12.20;;;;;;;22.51;70.13;95009.34;5037179;28;20933;-82
2023/09/15 00:35:22;;;;;;;17.20;11.63;;;;;;;22.53;70.06;95007.31;5055874;28;20447;-82
2023/09/15 00:37:50;;;;;;;12.00;10.90;;;;;;;22.53;69.90;95005.44;5055855;28;20469;-82
2023/09/15 00:40:19;;;;;;;13.03;11.73;;;;;;;22.46;70.06;95001.13;5055796;28;20522;-82
2023/09/15 00:42:47;;;;;;;12.37;11.17;;;;;;;22.45;70.52;95007.50;5055855;28;20457;-82
2023/09/15 00:45:15;;;;;;;12.60;11.30;;;;;;;22.43;70.67;95004.19;5055810;28;20451;-82
2023/09/15 00:47:46;;;;;;;14.77;11.80;;;;;;;22.38;69.96;95006.66;5055756;28;20449;-81
2023/09/15 00:50:14;;;;;;;17.90;11.47;;;;;;;22.40;70.58;95012.63;5055835;28;20489;-82
2023/09/15 00:52:44;;;;;;;11.93;10.83;;;;;;;22.40;70.43;95009.94;5055752;28;20441;-82
2023/09/15 00:55:13;;;;;;;13.13;11.40;;;;;;;22.40;70.49;95012.63;5055302;28;20442;-81
2023/09/15 00:57:40;;;;;;;12.90;11.50;;;;;;;22.41;70.21;95007.06;5055374;28;20802;-81
2023/09/15 01:00:12;;;;;;;12.67;10.70;;;;;;;22.41;70.18;95011.59;5055602;28;20437;-82
2023/09/15 01:02:41;;;;;;;12.50;11.20;;;;;;;22.41;70.08;95019.63;5055746;28;20453;-82
2023/09/15 01:05:10;;;;;;;13.50;11.23;;;;;;;22.33;70.39;95025.97;5054835;28;20496;-82
2023/09/15 01:07:37;;;;;;;12.97;10.93;;;;;;;22.31;70.30;95024.50;5055195;28;20450;-81
2023/09/15 01:10:06;;;;;;;12.17;10.00;;;;;;;22.32;70.90;95028.84;5055010;28;20989;-81
2023/09/15 01:12:33;;;;;;;15.03;11.40;;;;;;;22.29;70.97;95032.75;5055428;28;20487;-82
2023/09/15 01:15:00;;;;;;;11.50;10.40;;;;;;;22.27;70.97;95032.13;5055138;28;20453;-81
2023/09/15 01:17:33;;;;;;;14.80;11.30;;;;;;;22.29;71.06;95034.59;5055308;28;20528;-82
2023/09/15 01:20:10;;;;;;;13.77;12.37;;;;;;;22.29;70.74;95030.06;5055285;28;20495;-82
2023/09/15 01:23:10;;;;;;;12.67;11.40;;;;;;;22.28;71.25;95030.25;5055441;28;20508;-82
2023/09/15 01:25:57;;;;;;;12.87;11.40;;;;;;;22.25;71.26;95032.28;5055061;28;20954;-82
2023/09/15 01:28:49;;;;;;;12.27;10.97;;;;;;;22.26;71.33;95038.47;5055509;28;20851;-81
2023/09/15 01:31:18;;;;;;;12.73;11.23;;;;;;;22.28;71.35;95030.25;5055152;28;20486;-82
2023/09/15 01:33:46;;;;;;;12.40;11.13;;;;;;;22.27;71.12;95034.78;5055026;28;20444;-82
2023/09/15 01:36:13;;;;;;;16.53;13.10;;;;;;;22.29;71.21;95034.59;5055286;28;20473;-82
2023/09/15 01:38:40;;;;;;;13.40;12.10;;;;;;;22.29;71.79;95037.25;5054383;28;20568;-81
2023/09/15 01:41:06;;;;;;;18.67;11.80;;;;;;;22.25;71.33;95036.81;5054864;28;20783;-81
2023/09/15 01:43:33;;;;;;;13.53;12.10;;;;;;;22.19;71.48;95033.09;5055163;28;20449;-82
2023/09/15 01:46:00;;;;;;;12.73;11.40;;;;;;;22.22;71.58;95038.03;5054666;28;20799;-81
2023/09/15 01:48:29;;;;;;;13.50;12.10;;;;;;;22.22;71.62;95039.88;5055001;28;20204;-82
2023/09/15 01:50:57;;;;;;;13.43;12.13;;;;;;;22.19;71.91;95042.94;5054791;28;20487;-82
2023/09/15 01:53:25;;;;;;;13.40;12.00;;;;;;;22.23;71.61;95044.19;5054676;28;20872;-81
2023/09/15 01:55:52;;;;;;;12.00;10.80;;;;;;;22.22;71.44;95046.06;5054507;28;20435;-82
2023/09/15 01:58:19;;;;;;;13.47;10.90;;;;;;;22.19;71.63;95045.63;5054617;28;20452;-82
2023/09/15 02:00:46;;;;;;;15.33;11.40;;;;;;;22.16;71.71;95038.81;5054629;28;20476;-82
2023/09/15 02:03:13;;;;;;;14.33;11.87;;;;;;;22.16;71.36;95043.34;5054493;28;20489;-81
2023/09/15 02:05:41;;;;;;;13.27;11.97;;;;;;;22.14;71.18;95038.19;5054176;28;20537;-82
2023/09/15 02:08:08;;;;;;;15.37;12.43;;;;;;;22.09;71.03;95054.00;5054571;28;20448;-81
2023/09/15 02:10:35;;;;;;;13.93;11.87;;;;;;;22.00;71.50;95044.47;5053694;28;20493;-81
2023/09/15 02:13:02;;;;;;;15.73;11.50;;;;;;;21.93;71.64;95044.41;5035691;28;20819;-81
2023/09/15 02:15:28;;;;;;;18.40;12.83;;;;;;;21.93;71.93;95059.63;5054404;28;20454;-81
2023/09/15 02:17:59;;;;;;;14.43;10.97;;;;;;;21.90;72.06;95054.66;5054073;28;20441;-82
2023/09/15 02:20:26;;;;;;;15.13;12.70;;;;;;;21.84;72.50;95056.28;5054399;28;20470;-82
2023/09/15 02:22:54;;;;;;;14.50;11.80;;;;;;;21.85;72.61;95062.44;5053914;28;20784;-82
2023/09/15 02:25:21;;;;;;;12.90;11.17;;;;;;;21.81;72.60;95061.19;5054098;28;20447;-81
2023/09/15 02:27:47;;;;;;;19.93;13.43;;;;;;;21.79;72.61;95058.72;5054303;28;20445;-81
2023/09/15 02:30:14;;;;;;;13.00;11.43;;;;;;;21.75;72.92;95057.47;5053715;28;20488;-81
2023/09/15 02:32:41;;;;;;;13.07;11.87;;;;;;;21.71;73.16;95066.06;5054044;28;20795;-82
2023/09/15 02:35:09;;;;;;;16.97;12.90;;;;;;;21.68;73.31;95067.25;5054048;28;20447;-81
2023/09/15 02:37:36;;;;;;;14.27;12.33;;;;;;;21.64;73.77;95066.81;5053871;28;20482;-82
2023/09/15 02:40:06;;;;;;;19.30;13.10;;;;;;;21.57;73.82;95071.28;5054004;28;20451;-81
2023/09/15 02:42:33;;;;;;;14.97;13.37;;;;;;;21.50;74.04;95066.91;5053660;28;20839;-79
2023/09/15 02:45:00;;;;;;;12.70;11.50;;;;;;;21.58;75.18;95070.25;5053549;28;20452;-80
2023/09/15 02:47:29;;;;;;;14.50;11.37;;;;;;;21.91;74.71;95070.50;5054015;28;20449;-81
2023/09/15 02:49:56;;;;;;;17.83;12.37;;;;;;;22.48;72.11;95072.09;5052796;28;20486;-80
2023/09/15 02:52:23;;;;;;;12.50;11.30;;;;;;;22.47;70.33;95072.28;5053587;28;20454;-79
2023/09/15 02:54:49;;;;;;;12.43;11.20;;;;;;;22.39;69.55;95069.78;5053329;28;20793;-79
2023/09/15 02:57:18;;;;;;;13.57;12.20;;;;;;;22.25;69.57;95071.56;5018349;28;20784;-79
2023/09/15 02:59:44;;;;;;;24.60;11.50;;;;;;;22.05;70.22;95074.13;5052718;28;20812;-79
2023/09/15 03:02:12;;;;;;;12.83;11.60;;;;;;;21.92;71.88;95074.00;5052698;28;20826;-80
2023/09/15 03:04:39;;;;;;;14.03;12.63;;;;;;;21.90;73.08;95078.72;5017856;28;20447;-80
2023/09/15 03:07:06;;;;;;;16.30;14.60;;;;;;;22.00;71.54;95076.53;5051893;28;20435;-79
2023/09/15 03:09:33;;;;;;;16.53;12.27;;;;;;;21.93;71.09;95076.47;5034352;28;20597;-79
2023/09/15 03:12:00;;;;;;;15.50;12.63;;;;;;;21.83;71.63;95073.34;5052876;28;20532;-80
2023/09/15 03:14:28;;;;;;;12.87;11.67;;;;;;;21.81;73.75;95079.91;5057255;28;20434;-80
2023/09/15 03:16:55;;;;;;;15.00;13.60;;;;;;;21.83;72.36;95073.34;5053104;28;20447;-80
2023/09/15 03:19:22;;;;;;;18.03;12.57;;;;;;;21.81;72.32;95087.91;5053390;28;20536;-78
2023/09/15 03:21:49;;;;;;;18.33;13.20;;;;;;;21.72;72.97;95084.56;5053523;28;20459;-80
2023/09/15 03:24:16;;;;;;;18.30;13.90;;;;;;;21.63;74.40;95091.88;5053377;28;20446;-80
2023/09/15 03:26:43;;;;;;;14.33;12.87;;;;;;;21.46;74.91;95090.50;5052508;28;20798;-80
2023/09/15 03:29:10;;;;;;;15.43;13.43;;;;;;;21.40;74.61;95090.47;5052492;28;20452;-80
2023/09/15 03:31:38;;;;;;;18.97;14.20;;;;;;;21.27;75.15;95093.81;5052381;28;20499;-80
2023/09/15 03:34:05;;;;;;;17.40;13.70;;;;;;;21.19;75.84;95092.06;5033764;28;20436;-82
2023/09/15 03:36:32;;;;;;;14.93;13.50;;;;;;;21.14;75.90;95096.34;5052514;28;20467;-79
2023/09/15 03:38:59;;;;;;;19.17;13.23;;;;;;;21.10;76.97;95103.03;5052377;28;20440;-80
2023/09/15 03:41:27;;;;;;;15.97;13.50;;;;;;;21.07;77.07;95095.41;5050837;28;21071;-80
2023/09/15 03:43:55;;;;;;;15.43;13.30;;;;;;;20.98;77.07;95103.53;5051815;28;20446;-80
2023/09/15 03:46:22;;;;;;;22.40;13.97;;;;;;;20.96;77.72;95102.09;5060885;28;20841;-79
2023/09/15 03:48:50;;;;;;;17.87;13.73;;;;;;;20.96;77.68;95100.25;5056602;28;20937;-80
2023/09/15 03:51:17;;;;;;;18.00;14.13;;;;;;;20.95;77.89;95108.44;5051988;28;20489;-79
2023/09/15 03:53:44;;;;;;;13.83;12.27;;;;;;;20.92;77.32;95112.31;5051370;28;20470;-79
2023/09/15 03:56:10;;;;;;;17.10;12.67;;;;;;;20.94;77.37;95104.13;5052348;28;20444;-80
2023/09/15 03:58:37;;;;;;;25.10;13.93;;;;;;;20.89;77.10;95109.19;5051152;28;20883;-79
2023/09/15 04:01:06;;;;;;;15.97;13.97;;;;;;;20.87;77.78;95112.06;5051847;28;20664;-80
2023/09/15 04:03:34;;;;;;;16.47;13.50;;;;;;;20.88;77.47;95113.72;5051918;28;20454;-79
2023/09/15 04:06:04;;;;;;;19.33;13.50;;;;;;;20.91;77.27;95108.00;5056764;28;20933;-79
2023/09/15 04:08:30;;;;;;;16.43;13.47;;;;;;;20.96;77.34;95115.44;5055889;28;20444;-80
2023/09/15 04:10:57;;;;;;;17.10;13.87;;;;;;;20.95;77.23;95113.78;5055881;28;20496;-79
2023/09/15 04:13:24;;;;;;;18.37;13.90;;;;;;;20.95;77.12;95119.94;5056210;28;20449;-80
2023/09/15 04:15:52;;;;;;;14.57;13.17;;;;;;;20.95;77.15;95121.78;5056162;28;20440;-79
2023/09/15 04:18:19;;;;;;;19.23;13.83;;;;;;;20.91;77.03;95123.16;5057685;28;20450;-79
2023/09/15 04:20:46;;;;;;;15.30;13.80;;;;;;;20.91;77.01;95124.00;5061327;28;20446;-79
2023/09/15 04:23:14;;;;;;;22.90;12.97;;;;;;;20.93;77.71;95131.81;5059323;28;20439;-80
2023/09/15 04:25:41;;;;;;;16.27;14.27;;;;;;;20.91;77.63;95134.66;5055213;28;20458;-79
2023/09/15 04:28:07;;;;;;;15.57;13.97;;;;;;;20.87;76.96;95138.72;5055435;28;20948;-79
2023/09/15 04:30:34;;;;;;;14.40;12.87;;;;;;;20.81;77.58;95134.13;5055373;28;20482;-79
2023/09/15 04:33:01;;;;;;;15.43;13.60;;;;;;;20.76;77.54;95144.53;5020106;28;20761;-79
2023/09/15 04:35:28;;;;;;;17.33;12.57;;;;;;;20.71;77.65;95147.75;5054939;28;20946;-80
2023/09/15 04:37:55;;;;;;;16.23;13.17;;;;;;;20.70;78.09;95145.28;5055153;28;20444;-80
2023/09/15 04:40:23;;;;;;;16.87;14.00;;;;;;;20.70;78.28;95147.94;5054813;28;20442;-80
2023/09/15 04:42:50;;;;;;;15.47;13.97;;;;;;;20.73;77.67;95158.25;5055283;28;20449;-79
2023/09/15 04:45:17;;;;;;;18.93;14.33;;;;;;;20.70;78.09;95154.09;5055156;28;20447;-79
2023/09/15 04:47:44;;;;;;;16.70;13.57;;;;;;;20.66;78.17;95158.16;5054650;28;20447;-80
2023/09/15 04:50:11;;;;;;;16.73;13.50;;;;;;;20.68;78.10;95155.31;5055143;28;20442;-81
2023/09/15 04:52:38;;;;;;;14.90;13.13;;;;;;;20.74;78.16;95159.88;5054301;28;20462;-81
2023/09/15 04:55:05;;;;;;;15.87;14.13;;;;;;;20.70;78.77;95156.78;5054372;28;20459;-80
2023/09/15 04:57:34;;;;;;;18.83;14.60;;;;;;;20.68;78.58;95157.97;5054921;28;20495;-80
2023/09/15 05:00:11;;;;;;;17.53;13.93;;;;;;;20.64;79.11;95160.19;5054692;28;20930;-80
2023/09/15 05:02:38;;;;;;;17.80;13.50;;;;;;;20.76;79.91;95162.38;5054812;28;20987;-80
2023/09/15 05:05:05;;;;;;;15.30;13.90;;;;;;;20.82;79.36;95159.81;5054342;28;20442;-79
2023/09/15 05:07:32;;;;;;;17.90;13.00;;;;;;;21.03;78.73;95157.16;5054238;28;20456;-80
2023/09/15 05:09:59;;;;;;;18.73;14.90;;;;;;;21.12;77.13;95162.41;5054128;28;20437;-80
2023/09/15 05:12:25;;;;;;;17.93;12.70;;;;;;;21.30;76.99;95168.19;5054826;28;21035;-79
2023/09/15 05:14:54;;;;;;;14.90;13.60;;;;;;;21.47;76.84;95160.75;5053221;28;20525;-80
2023/09/15 05:17:22;;;;;;;17.67;13.93;;;;;;;21.73;75.95;95168.19;5054546;28;20445;-80
2023/09/15 05:19:49;;;;;;;17.43;14.40;;;;;;;22.08;74.59;95161.94;5054076;28;20451;-80
2023/09/15 05:22:16;;;;;;;25.60;14.27;;;;;;;22.49;72.83;95177.22;5054184;28;20449;-80
2023/09/15 05:24:43;;;;;;;14.83;13.33;;;;;;;22.86;71.74;95171.53;5054305;28;20972;-80
2023/09/15 05:27:09;;;;;;;16.07;14.47;;;;;;;23.14;70.17;95176.78;5054319;28;20835;-79
2023/09/15 05:29:36;;;;;;;15.43;13.90;;;;;;;23.38;69.47;95178.06;5054212;28;20957;-80
2023/09/15 05:32:05;;;;;;;18.73;16.10;;;;;;;23.44;68.92;95181.81;5054200;28;20515;-80
2023/09/15 05:34:32;;;;;;;19.43;14.90;;;;;;;23.54;68.78;95178.75;5035634;28;20451;-80
2023/09/15 05:36:59;;;;;;;18.90;16.90;;;;;;;23.73;68.43;95169.94;5053946;28;20447;-80
2023/09/15 05:39:26;;;;;;;15.73;14.13;;;;;;;23.93;68.41;95175.31;5054315;28;20442;-79
2023/09/15 05:41:52;;;;;;;18.43;14.47;;;;;;;24.00;67.40;95174.31;5054286;28;20456;-80
2023/09/15 05:44:19;;;;;;;19.90;14.40;;;;;;;24.17;66.61;95181.91;5054215;28;20444;-79
2023/09/15 05:46:54;;;;;;;22.67;15.40;;;;;;;24.17;66.75;95181.91;5054291;28;20460;-80
2023/09/15 05:49:23;;;;;;;18.37;16.40;;;;;;;24.31;67.08;95180.94;5036403;28;20447;-80
2023/09/15 05:51:50;;;;;;;18.97;14.20;;;;;;;24.47;67.09;95182.34;5053956;28;20489;-80
2023/09/15 05:54:16;;;;;;;25.13;15.80;;;;;;;24.56;65.57;95183.75;5053847;28;20449;-80
2023/09/15 05:56:43;;;;;;;19.60;15.23;;;;;;;24.83;65.95;95182.66;5053685;28;20928;-80
2023/09/15 05:59:15;;;;;;;26.10;15.70;;;;;;;24.98;64.75;95182.44;5053721;28;20449;-80
2023/09/15 06:01:47;;;;;;;25.03;14.60;;;;;;;25.12;63.31;95186.72;5053829;28;20469;-80
2023/09/15 06:04:20;;;;;;;20.73;15.60;;;;;;;25.25;63.24;95181.31;5054106;28;20449;-80
2023/09/15 06:06:50;;;;;;;14.87;13.20;;;;;;;25.33;62.36;95183.75;5053640;28;20528;-79
2023/09/15 06:09:24;;;;;;;17.23;14.23;;;;;;;25.44;62.24;95189.47;5053618;28;20452;-80
2023/09/15 06:11:59;;;;;;;14.77;12.10;;;;;;;25.74;61.78;95185.22;5053692;28;20496;-80
2023/09/15 06:14:29;;;;;;;15.17;12.53;;;;;;;26.03;60.13;95186.47;5053890;28;20437;-79
2023/09/15 06:20:05;;;;;;;11.00;9.90;;;;;;;26.29;58.07;95184.59;4920022;29;20503;-79
2023/09/15 06:22:33;;;;;;;11.73;10.53;;;;;;;26.24;58.21;95187.94;4934127;29;20451;-79
2023/09/15 06:25:01;;;;;;;11.10;10.00;;;;;;;26.14;58.43;95180.38;4933659;29;20451;-80
2023/09/15 06:27:29;;;;;;;11.93;10.77;;;;;;;26.13;58.44;95189.50;4934102;29;20444;-80
2023/09/15 06:29:56;;;;;;;17.60;11.23;;;;;;;26.05;58.67;95178.19;4933853;29;20998;-79
2023/09/15 06:32:23;;;;;;;10.80;9.80;;;;;;;26.09;58.64;95184.78;4933594;29;20521;-79
2023/09/15 06:34:49;;;;;;;17.80;10.10;;;;;;;26.19;59.35;95185.09;4934033;29;20439;-80
2023/09/15 06:37:16;;;;;;;19.33;11.33;;;;;;;26.31;58.87;95179.81;4901799;29;20436;-79
2023/09/15 06:39:44;;;;;;;14.20;11.00;;;;;;;26.46;57.38;95183.03;4933609;29;21173;-79
2023/09/15 06:42:11;;;;;;;12.83;9.90;;;;;;;26.47;58.24;95188.19;4933900;29;20454;-80
2023/09/15 06:44:40;;;;;;;10.70;9.80;;;;;;;26.59;57.99;95185.59;4933390;29;20472;-80
2023/09/15 06:47:17;;;;;;;13.80;9.93;;;;;;;26.77;57.84;95187.47;4933634;29;20462;-80
2023/09/15 06:50:05;;;;;;;10.87;9.90;;;;;;;26.94;57.50;95183.16;4933198;29;20482;-80
2023/09/15 06:52:38;;;;;;;16.10;10.17;;;;;;;27.07;55.98;95180.34;4914157;29;20491;-79
2023/09/15 06:55:37;;;;;;;11.97;10.03;;;;;;;26.98;55.99;95178.97;4914352;29;20947;-80
2023/09/15 06:58:06;;;;;;;13.03;9.40;;;;;;;27.15;55.44;95177.34;4884960;29;20459;-80
2023/09/15 07:00:32;;;;;;;13.57;11.10;;;;;;;27.21;55.88;95174.81;4895419;29;20460;-79
2023/09/15 07:02:59;;;;;;;15.93;10.33;;;;;;;27.32;55.49;95174.03;4895334;29;20500;-80
2023/09/15 07:05:26;;;;;;;10.90;9.90;;;;;;;27.45;55.05;95171.16;4895283;29;20449;-80
2023/09/15 07:07:53;;;;;;;15.10;10.80;;;;;;;27.42;54.28;95171.59;4895427;29;20453;-79
2023/09/15 07:10:19;;;;;;;11.70;10.53;;;;;;;27.27;54.82;95173.91;4895168;29;20941;-80
2023/09/15 07:12:46;;;;;;;12.67;10.80;;;;;;;27.35;54.70;95165.50;4895060;29;21081;-79
2023/09/15 07:15:15;;;;;;;10.90;9.87;;;;;;;27.46;54.04;95168.22;4895309;29;20445;-80
2023/09/15 07:17:42;;;;;;;10.87;9.87;;;;;;;27.63;53.76;95171.16;4880717;29;20458;-79
2023/09/15 07:20:09;;;;;;;11.40;10.30;;;;;;;27.64;53.64;95167.41;4932813;29;20447;-80
2023/09/15 07:22:36;;;;;;;13.27;10.67;;;;;;;27.65;54.38;95169.03;4932829;29;20517;-79
2023/09/15 07:25:03;;;;;;;15.67;11.00;;;;;;;27.62;53.68;95174.06;4932729;29;20451;-79
2023/09/15 07:27:30;;;;;;;17.37;10.30;;;;;;;27.72;54.36;95164.38;4932743;29;20451;-79
2023/09/15 07:29:57;;;;;;;12.93;10.23;;;;;;;27.65;53.42;95162.84;4932667;29;20447;-79
2023/09/15 07:32:25;;;;;;;12.10;10.80;;;;;;;27.74;53.51;95159.56;4932616;29;20493;-79
2023/09/15 07:34:52;;;;;;;12.00;10.20;;;;;;;27.72;53.40;95166.25;4929255;28;20461;-79
2023/09/15 07:37:19;;;;;;;11.40;10.00;;;;;;;27.72;52.99;95167.06;5016581;28;20937;-80
2023/09/15 07:39:45;;;;;;;14.13;10.53;;;;;;;27.82;52.21;95173.81;5051845;28;20446;-79
2023/09/15 07:42:12;;;;;;;16.10;10.87;;;;;;;27.96;53.14;95177.94;5033082;28;20477;-80
2023/09/15 07:44:41;;;;;;;23.57;10.20;;;;;;;28.06;52.32;95168.25;5051955;28;20442;-79
2023/09/15 07:47:12;;;;;;;13.80;11.40;;;;;;;28.27;52.47;95177.66;5052096;28;20453;-80
2023/09/15 07:49:40;;;;;;;12.23;11.07;;;;;;;28.41;52.69;95163.97;5017877;28;20450;-80
2023/09/15 07:52:07;;;;;;;16.60;10.30;;;;;;;28.56;52.41;95169.69;5052307;28;20556;-79
2023/09/15 07:54:33;;;;;;;13.40;9.80;;;;;;;28.81;51.49;95166.75;5051585;28;20441;-80
2023/09/15 07:57:01;;;;;;;11.50;10.30;;;;;;;28.93;50.46;95168.44;5051920;28;20524;-80
2023/09/15 07:59:27;;;;;;;11.53;10.33;;;;;;;28.92;48.73;95156.00;5051844;28;20500;-80
2023/09/15 08:01:54;;;;;;;14.63;10.50;;;;;;;28.50;49.08;95160.66;5033087;28;20443;-80
2023/09/15 08:04:21;;;;;;;11.57;10.37;;;;;;;28.33;50.34;95163.22;5051870;28;20450;-80
2023/09/15 08:06:49;;;;;;;11.20;10.00;;;;;;;28.44;50.23;95166.19;5051850;28;20950;-79
2023/09/15 08:09:17;;;;;;;14.03;9.90;;;;;;;28.32;50.44;95168.88;5052061;28;20446;-79
2023/09/15 08:11:44;;;;;;;11.60;10.60;;;;;;;28.41;49.97;95155.88;5051620;28;20503;-79
2023/09/15 08:14:10;;;;;;;12.20;10.33;;;;;;;28.47;49.76;95154.91;5051585;28;20932;-80
2023/09/15 08:16:37;;;;;;;11.47;10.27;;;;;;;28.60;49.67;95162.78;5051852;28;20437;-79
2023/09/15 08:19:04;;;;;;;11.87;9.70;;;;;;;28.80;50.35;95159.72;5016881;28;20442;-79
2023/09/15 08:21:31;;;;;;;11.67;10.57;;;;;;;28.99;48.49;95145.03;5052594;28;20939;-80
2023/09/15 08:23:59;;;;;;;18.20;9.93;;;;;;;29.10;49.32;95144.19;5058547;28;20437;-80
2023/09/15 08:26:26;;;;;;;14.30;10.43;;;;;;;29.10;48.23;95143.34;5054653;28;20955;-80
2023/09/15 08:28:53;;;;;;;13.20;10.80;;;;;;;29.15;47.88;95143.47;5051667;28;20441;-80
2023/09/15 08:31:20;;;;;;;12.87;10.43;;;;;;;29.20;47.44;95147.13;5051348;28;20448;-80
2023/09/15 08:33:47;;;;;;;11.10;9.90;;;;;;;29.41;47.71;95134.78;5051488;28;20540;-79
2023/09/15 08:36:13;;;;;;;13.57;10.37;;;;;;;29.38;47.58;95137.97;5051265;28;20453;-80
2023/09/15 08:38:40;;;;;;;12.57;10.27;;;;;;;28.96;47.34;95130.13;5051432;28;20438;-79
2023/09/15 08:41:13;;;;;;;13.60;11.13;;;;;;;28.82;48.17;95134.09;5051282;28;20484;-80
2023/09/15 08:43:41;;;;;;;15.63;11.37;;;;;;;28.85;49.24;95127.44;5051403;28;20437;-80
2023/09/15 08:46:09;;;;;;;11.50;10.37;;;;;;;28.89;48.55;95134.81;5051606;28;20449;-80
2023/09/15 08:48:41;;;;;;;14.03;10.83;;;;;;;28.79;47.99;95131.88;5051449;28;20503;-79
2023/09/15 08:51:09;;;;;;;19.80;12.00;;;;;;;28.74;48.87;95129.06;5036199;28;20911;-80
2023/09/15 08:53:36;;;;;;;13.07;10.77;;;;;;;28.77;47.61;95117.78;5054954;28;20485;-79
2023/09/15 08:56:04;;;;;;;13.60;11.07;;;;;;;28.79;48.80;95115.66;5054922;28;20500;-79
2023/09/15 08:58:32;;;;;;;12.80;11.10;;;;;;;28.89;48.75;95117.78;5054577;28;20585;-80
2023/09/15 09:01:01;;;;;;;13.13;11.50;;;;;;;29.03;48.22;95111.06;5054536;28;20449;-80
2023/09/15 09:03:28;;;;;;;11.47;10.37;;;;;;;29.25;48.30;95111.25;5055070;28;20495;-80
2023/09/15 09:05:56;;;;;;;11.37;10.13;;;;;;;29.48;47.83;95104.94;5054762;28;20457;-80
2023/09/15 09:08:24;;;;;;;15.97;10.90;;;;;;;29.64;46.91;95108.75;5035822;28;20440;-80
2023/09/15 09:10:52;;;;;;;11.73;10.53;;;;;;;29.71;46.31;95104.81;5054392;28;20643;-80
2023/09/15 09:13:22;;;;;;;11.77;10.73;;;;;;;29.84;45.94;95101.81;5054489;28;20489;-80
2023/09/15 09:15:51;;;;;;;12.53;11.37;;;;;;;29.74;45.46;95108.91;5055056;28;20549;-79
2023/09/15 09:18:19;;;;;;;11.53;10.47;;;;;;;29.53;45.49;95103.16;5054343;28;20477;-80
2023/09/15 09:20:49;;;;;;;15.57;11.00;;;;;;;29.35;45.88;95103.31;5054520;28;20857;-80
2023/09/15 09:23:17;;;;;;;11.33;10.33;;;;;;;29.23;46.18;95102.56;5054310;28;20446;-80
2023/09/15 09:25:45;;;;;;;13.97;11.33;;;;;;;29.22;47.07;95100.91;5054123;28;20446;-80
2023/09/15 09:28:12;;;;;;;15.07;11.00;;;;;;;29.24;46.82;95101.50;5054152;28;20438;-80
2023/09/15 09:30:39;;;;;;;12.93;11.63;;;;;;;29.29;45.92;95099.69;5054381;28;20940;-80
2023/09/15 09:33:08;;;;;;;12.20;11.00;;;;;;;29.33;45.84;95093.81;5054337;28;20481;-80
2023/09/15 09:35:36;;;;;;;24.30;12.63;;;;;;;29.35;46.18;95100.63;5054175;28;20741;-81
2023/09/15 09:38:03;;;;;;;17.10;11.73;;;;;;;29.34;47.08;95093.56;5053913;28;20480;-81
2023/09/15 09:40:32;;;;;;;11.10;9.87;;;;;;;29.35;46.74;95092.50;5053987;28;20434;-81
2023/09/15 09:42:59;;;;;;;13.73;10.70;;;;;;;29.29;46.15;95098.88;5054163;28;20437;-80
2023/09/15 09:45:26;;;;;;;13.00;10.60;;;;;;;29.35;47.11;95100.63;5054219;28;20438;-80
2023/09/15 09:47:54;;;;;;;11.90;10.73;;;;;;;28.84;47.80;95090.63;5053918;28;20951;-80
2023/09/15 09:50:23;;;;;;;14.40;12.20;;;;;;;28.85;47.40;95105.81;5053768;28;20477;-80
2023/09/15 09:52:51;;;;;;;14.10;11.30;;;;;;;28.74;47.59;95096.66;5054036;28;20492;-81
2023/09/15 09:55:18;;;;;;;13.80;11.40;;;;;;;28.77;46.70;95088.06;5053944;28;20449;-80
2023/09/15 09:57:44;;;;;;;12.83;11.53;;;;;;;28.75;47.72;95095.59;5053645;28;20437;-80
2023/09/15 10:00:17;;;;;;;13.20;11.33;;;;;;;28.83;46.67;95083.59;5053055;28;20441;-80
2023/09/15 10:02:44;;;;;;;16.13;11.33;;;;;;;28.74;46.92;95082.34;5020523;28;20450;-80
2023/09/15 10:05:12;;;;;;;12.93;10.87;;;;;;;28.67;47.61;95083.28;5053649;28;20446;-80
2023/09/15 10:07:40;;;;;;;13.50;11.33;;;;;;;28.72;47.97;95089.84;5053362;28;20451;-80
2023/09/15 10:10:09;;;;;;;13.40;10.97;;;;;;;28.74;47.64;95083.16;5053860;28;20450;-80
2023/09/15 10:12:36;;;;;;;12.60;10.60;;;;;;;28.67;47.21;95082.47;5053486;28;20539;-81
2023/09/15 10:15:06;;;;;;;12.30;11.17;;;;;;;28.54;47.64;95091.63;5053612;28;20495;-80
2023/09/15 10:17:34;;;;;;;18.23;11.30;;;;;;;28.56;47.77;95077.91;5053052;28;20955;-80
2023/09/15 10:20:02;;;;;;;13.00;11.23;;;;;;;28.58;48.17;95084.69;5053223;28;20950;-79
2023/09/15 10:22:30;;;;;;;18.03;11.57;;;;;;;28.49;48.16;95075.31;5053233;28;20457;-79
2023/09/15 10:25:00;;;;;;;16.03;10.40;;;;;;;28.41;47.26;95082.97;5053219;28;20445;-80
2023/09/15 10:27:29;;;;;;;10.73;9.83;;;;;;;28.36;47.59;95080.97;5053468;28;20446;-80
2023/09/15 10:30:04;;;;;;;12.77;11.50;;;;;;;28.32;48.20;95080.59;5053389;28;20446;-80
2023/09/15 10:32:37;;;;;;;13.20;11.17;;;;;;;28.34;48.36;95073.13;5053008;28;20521;-80
2023/09/15 10:35:05;;;;;;;18.13;12.40;;;;;;;28.43;47.95;95072.75;5053263;28;20450;-80
2023/09/15 10:37:33;;;;;;;14.53;9.97;;;;;;;28.54;47.56;95070.03;5053208;28;20445;-79
2023/09/15 10:40:01;;;;;;;11.97;10.77;;;;;;;28.61;46.29;95068.00;5052891;28;20449;-80
2023/09/15 10:42:28;;;;;;;12.83;11.20;;;;;;;28.69;46.90;95067.66;5052800;28;20453;-80
2023/09/15 10:44:54;;;;;;;11.97;10.63;;;;;;;28.82;46.26;95053.06;5052872;28;20445;-80
2023/09/15 10:47:22;;;;;;;19.47;10.63;;;;;;;28.96;46.02;95059.88;5033760;28;20425;-80
2023/09/15 10:49:50;;;;;;;19.00;10.77;;;;;;;29.07;45.52;95058.19;5052659;28;20449;-80
2023/09/15 10:52:17;;;;;;;11.63;10.53;;;;;;;29.12;45.43;95047.47;5017515;28;20515;-80
2023/09/15 10:54:44;;;;;;;14.03;11.67;;;;;;;29.12;46.32;95052.88;5052405;28;20446;-80
2023/09/15 10:57:15;;;;;;;15.67;10.87;;;;;;;29.10;45.63;95046.88;5052798;28;20467;-79
2023/09/15 10:59:42;;;;;;;12.30;11.13;;;;;;;29.12;45.81;95046.66;5052458;28;20934;-80
2023/09/15 11:02:10;;;;;;;11.37;10.23;;;;;;;29.17;46.25;95049.44;5052473;28;20776;-79
2023/09/15 11:04:37;;;;;;;17.57;10.93;;;;;;;29.22;46.05;95044.16;5052549;28;20438;-80
2023/09/15 11:07:06;;;;;;;11.80;10.60;;;;;;;29.23;45.65;95045.78;5052656;28;20844;-80
2023/09/15 11:09:33;;;;;;;11.73;10.63;;;;;;;29.03;45.13;95032.72;5052615;28;21129;-80
2023/09/15 11:12:02;;;;;;;11.60;10.50;;;;;;;29.02;45.92;95041.06;5051696;28;20462;-80
2023/09/15 11:14:30;;;;;;;12.10;10.90;;;;;;;28.80;45.46;95038.16;5052182;28;20553;-79
2023/09/15 11:16:57;;;;;;;16.37;11.40;;;;;;;28.78;46.50;95041.09;5052461;28;20442;-80
2023/09/15 11:19:29;;;;;;;14.40;11.70;;;;;;;28.85;47.19;95025.59;5052366;28;20438;-80
2023/09/15 11:21:55;;;;;;;10.30;9.50;;;;;;;28.81;47.21;95034.38;5052156;28;20446;-79
2023/09/15 11:24:23;;;;;;;12.43;11.13;;;;;;;28.71;46.92;95026.91;5052306;28;20453;-80